Time;durP1;ratioP1;P1;durP2;ratioP2;P2;SDS_P1;SDS_P2;PMS_P1;PMS_P2;Temp;Humidity;BMP_temperature;BMP_pressure;BME280_temperature;BME280_humidity;BME280_pressure;Samples;Min_cycle;Max_cycle;Signal;HPM_P1;HPM_P2
2021/10/26 00:02:38;;;;;;;12.68;7.00;;;;;;;3.45;100.00;95831.19;10484546;28;20464;-73
2021/10/26 00:07:38;;;;;;;9.48;6.05;;;;;;;3.23;100.00;95826.00;10465438;28;20029;-71
2021/10/26 00:12:39;;;;;;;19.15;7.10;;;;;;;3.03;100.00;95817.16;10465559;28;20111;-71
2021/10/26 00:17:40;;;;;;;19.13;8.23;;;;;;;3.03;100.00;95817.97;10465730;28;20021;-70
2021/10/26 00:22:40;;;;;;;16.58;8.00;;;;;;;2.85;100.00;95815.88;10465696;28;20028;-70
2021/10/26 00:27:41;;;;;;;12.38;6.53;;;;;;;2.94;100.00;95811.19;10464989;28;20036;-74
2021/10/26 00:32:42;;;;;;;10.45;5.63;;;;;;;3.08;100.00;95806.75;10465235;28;20056;-76
2021/10/26 00:37:44;;;;;;;10.73;5.85;;;;;;;3.25;100.00;95799.22;10465093;28;20572;-71
2021/10/26 00:42:45;;;;;;;17.08;6.47;;;;;;;3.29;100.00;95799.66;10464735;28;20031;-71
2021/10/26 00:47:45;;;;;;;18.13;8.27;;;;;;;3.19;100.00;95797.38;10464833;28;20024;-70
2021/10/26 00:52:45;;;;;;;13.10;7.45;;;;;;;3.23;100.00;95801.28;10448351;28;20463;-71
2021/10/26 00:57:46;;;;;;;13.10;7.10;;;;;;;3.13;100.00;95785.72;10463950;28;20532;-69
2021/10/26 01:02:47;;;;;;;17.13;8.48;;;;;;;3.05;100.00;95784.06;10464350;28;20494;-70
2021/10/26 01:07:48;;;;;;;17.27;7.78;;;;;;;3.04;100.00;95776.28;10464247;28;20111;-70
2021/10/26 01:12:49;;;;;;;17.42;7.78;;;;;;;3.04;100.00;95770.97;10464133;28;20509;-70
2021/10/26 01:17:49;;;;;;;15.70;8.95;;;;;;;2.99;100.00;95770.78;10464849;28;20022;-75
2021/10/26 01:22:50;;;;;;;20.30;9.10;;;;;;;3.00;100.00;95767.09;10464062;28;20024;-70
2021/10/26 01:27:54;;;;;;;12.30;7.10;;;;;;;3.05;100.00;95767.31;10463286;28;20052;-68
2021/10/26 01:32:54;;;;;;;14.45;7.28;;;;;;;3.06;100.00;95759.16;10463611;28;20666;-70
2021/10/26 01:37:55;;;;;;;19.73;9.90;;;;;;;3.02;100.00;95765.06;10463425;28;20510;-71
2021/10/26 01:42:56;;;;;;;12.05;7.57;;;;;;;3.03;100.00;95754.25;10463350;28;20138;-72
2021/10/26 01:47:56;;;;;;;18.90;9.43;;;;;;;3.02;100.00;95746.47;10481220;28;20108;-78
2021/10/26 01:52:57;;;;;;;12.13;6.72;;;;;;;3.02;100.00;95741.16;10463497;28;20101;-70
2021/10/26 01:57:58;;;;;;;13.25;8.07;;;;;;;3.01;100.00;95729.72;10463098;28;20024;-70
2021/10/26 02:02:58;;;;;;;16.45;8.48;;;;;;;2.89;100.00;95734.00;10463058;28;20048;-70
2021/10/26 02:07:59;;;;;;;22.33;13.70;;;;;;;2.93;100.00;95727.25;10480706;28;20028;-71
2021/10/26 02:12:59;;;;;;;12.23;7.43;;;;;;;2.88;100.00;95729.69;10486754;28;20286;-71
2021/10/26 02:18:00;;;;;;;21.73;11.15;;;;;;;2.87;100.00;95726.19;10470630;28;20411;-72
2021/10/26 02:23:00;;;;;;;21.27;11.15;;;;;;;2.84;100.00;95718.66;10453600;28;20028;-71
2021/10/26 02:28:01;;;;;;;25.17;10.88;;;;;;;2.79;100.00;95723.75;10469457;28;20452;-70
2021/10/26 02:33:02;;;;;;;22.70;10.65;;;;;;;2.90;100.00;95722.34;10469573;28;20498;-70
2021/10/26 02:38:03;;;;;;;24.73;11.70;;;;;;;2.86;100.00;95721.09;10453163;28;20147;-74
2021/10/26 02:43:04;;;;;;;22.52;10.77;;;;;;;2.82;100.00;95720.69;10469547;28;20261;-71
2021/10/26 02:48:04;;;;;;;22.48;15.38;;;;;;;2.87;100.00;95718.22;10469238;28;20123;-71
2021/10/26 02:53:05;;;;;;;26.42;16.48;;;;;;;2.83;100.00;95716.19;10468771;28;20039;-73
2021/10/26 02:58:05;;;;;;;16.55;9.30;;;;;;;2.83;100.00;95719.69;10468397;28;20020;-69
2021/10/26 03:03:06;;;;;;;28.40;20.97;;;;;;;2.81;100.00;95703.13;10468219;28;20097;-70
2021/10/26 03:08:06;;;;;;;21.10;10.27;;;;;;;2.66;100.00;95710.44;10468366;28;20363;-69
2021/10/26 03:13:06;;;;;;;28.23;24.25;;;;;;;2.62;100.00;95699.38;10468709;28;20318;-69
2021/10/26 03:18:07;;;;;;;22.98;11.85;;;;;;;2.56;100.00;95703.66;10467584;28;20032;-72
2021/10/26 03:23:09;;;;;;;26.90;19.40;;;;;;;2.51;100.00;95707.91;10467455;28;20063;-69
2021/10/26 03:28:10;;;;;;;64.50;58.90;;;;;;;2.31;100.00;95702.53;10467189;28;20608;-70
2021/10/26 03:33:11;;;;;;;21.50;10.07;;;;;;;2.21;100.00;95701.06;10484672;28;20032;-70
2021/10/26 03:38:11;;;;;;;15.87;9.77;;;;;;;1.99;100.00;95696.84;10467075;28;20024;-69
2021/10/26 03:43:11;;;;;;;17.88;9.30;;;;;;;1.84;100.00;95703.09;10467363;28;20297;-70
2021/10/26 03:48:12;;;;;;;18.30;10.37;;;;;;;1.79;100.00;95702.06;10466185;28;20422;-72
2021/10/26 03:53:12;;;;;;;24.23;10.65;;;;;;;1.58;100.00;95693.13;10448463;28;20267;-76
2021/10/26 03:58:13;;;;;;;21.35;9.43;;;;;;;1.45;100.00;95698.31;10465809;28;20051;-76
2021/10/26 04:03:13;;;;;;;19.92;10.13;;;;;;;1.39;100.00;95696.47;10454726;28;20025;-76
2021/10/26 04:08:25;;;;;;;20.35;9.10;;;;;;;1.35;100.00;95703.94;10441763;28;20568;-71
2021/10/26 04:13:26;;;;;;;23.08;8.70;;;;;;;1.25;100.00;95704.28;10479289;28;20032;-74
2021/10/26 04:18:28;;;;;;;16.85;9.02;;;;;;;1.14;100.00;95695.00;10460232;28;20028;-72
2021/10/26 04:23:29;;;;;;;18.65;10.00;;;;;;;1.14;100.00;95702.16;10463975;28;20657;-73
2021/10/26 04:28:30;;;;;;;20.30;11.32;;;;;;;1.07;100.00;95698.63;10464198;28;20044;-72
2021/10/26 04:33:31;;;;;;;16.48;9.27;;;;;;;1.11;100.00;95698.03;10433514;28;20513;-71
2021/10/26 04:38:31;;;;;;;16.23;8.90;;;;;;;1.07;100.00;95702.09;10439657;28;20036;-71
2021/10/26 04:43:32;;;;;;;23.43;9.23;;;;;;;1.07;100.00;95703.91;10475423;28;20023;-75
2021/10/26 04:48:32;;;;;;;19.75;9.63;;;;;;;1.04;100.00;95709.59;10463576;28;20287;-76
2021/10/26 04:53:33;;;;;;;20.23;10.50;;;;;;;1.03;100.00;95700.81;10463923;28;20118;-72
2021/10/26 04:58:33;;;;;;;19.52;9.10;;;;;;;1.09;100.00;95702.72;10463984;28;20028;-72
2021/10/26 05:03:33;;;;;;;20.63;10.87;;;;;;;1.19;100.00;95705.88;10441225;28;20093;-73
2021/10/26 05:08:34;;;;;;;22.17;10.30;;;;;;;1.18;100.00;95709.50;10422745;28;20299;-73
2021/10/26 05:13:34;;;;;;;20.75;11.40;;;;;;;1.31;100.00;95708.00;10421670;28;20463;-72
2021/10/26 05:18:39;;;;;;;19.20;10.20;;;;;;;1.38;100.00;95713.34;10429080;28;20161;-70
2021/10/26 05:23:45;;;;;;;19.58;11.23;;;;;;;1.52;100.00;95713.28;10463129;28;20571;-74
2021/10/26 05:28:47;;;;;;;33.28;14.23;;;;;;;1.66;100.00;95711.53;10446053;28;20426;-76
2021/10/26 05:33:47;;;;;;;17.15;10.00;;;;;;;1.81;100.00;95711.41;10463037;28;20025;-75
2021/10/26 05:38:48;;;;;;;23.25;11.85;;;;;;;1.90;100.00;95711.28;10462298;28;20024;-72
2021/10/26 05:43:48;;;;;;;16.13;10.50;;;;;;;2.10;100.00;95720.16;10463987;28;20027;-72
2021/10/26 05:48:49;;;;;;;40.83;36.78;;;;;;;2.27;100.00;95714.56;10444695;28;20451;-72
2021/10/26 05:53:49;;;;;;;19.38;11.25;;;;;;;2.58;100.00;95715.91;10445674;28;20423;-72
2021/10/26 05:58:53;;;;;;;23.33;10.50;;;;;;;2.84;100.00;95716.00;10445812;28;20043;-80
2021/10/26 06:03:54;;;;;;;20.35;10.80;;;;;;;3.12;100.00;95724.84;10450537;28;20540;-72
2021/10/26 06:08:54;;;;;;;24.60;12.13;;;;;;;3.36;100.00;95726.94;10429061;28;20032;-70
2021/10/26 06:14:04;;;;;;;20.00;10.98;;;;;;;3.66;100.00;95737.16;10446909;28;20555;-72
2021/10/26 06:19:05;;;;;;;109.70;101.85;;;;;;;3.85;100.00;95722.22;10444714;28;20025;-72
2021/10/26 06:24:06;;;;;;;20.63;11.07;;;;;;;4.08;100.00;95721.75;10445433;28;20045;-75
2021/10/26 06:29:07;;;;;;;20.58;10.40;;;;;;;4.31;100.00;95725.00;10444636;28;20092;-72
2021/10/26 06:34:08;;;;;;;44.53;26.65;;;;;;;4.40;100.00;95724.56;10445347;28;20029;-72
2021/10/26 06:39:08;;;;;;;22.63;12.02;;;;;;;4.88;100.00;95714.53;10469435;28;20028;-76
2021/10/26 06:44:09;;;;;;;28.73;10.68;;;;;;;5.97;100.00;95712.56;10486679;28;20902;-71
2021/10/26 06:49:09;;;;;;;19.73;9.82;;;;;;;6.51;100.00;95722.69;10451456;28;20028;-73
2021/10/26 06:54:11;;;;;;;21.10;10.10;;;;;;;6.59;100.00;95719.72;10486309;28;20032;-76
2021/10/26 06:59:11;;;;;;;19.23;7.93;;;;;;;6.46;100.00;95725.19;10467526;28;20016;-71
2021/10/26 07:04:12;;;;;;;16.13;8.90;;;;;;;6.58;100.00;95723.41;10467665;28;20506;-75
2021/10/26 07:09:12;;;;;;;17.73;9.07;;;;;;;7.12;100.00;95722.75;10457779;28;20050;-76
2021/10/26 07:14:13;;;;;;;19.88;8.23;;;;;;;7.59;100.00;95714.88;10444422;28;20021;-75
2021/10/26 07:19:13;;;;;;;10.70;6.67;;;;;;;7.37;100.00;95717.25;10444366;28;20040;-72
2021/10/26 07:24:14;;;;;;;15.20;7.33;;;;;;;7.56;100.00;95709.97;10448481;28;20427;-76
2021/10/26 07:29:17;;;;;;;14.60;7.78;;;;;;;7.56;100.00;95715.31;10466543;28;20307;-71
2021/10/26 07:34:17;;;;;;;19.08;8.80;;;;;;;7.56;100.00;95709.16;10467404;28;20032;-76
2021/10/26 07:44:32;;;;;;;15.70;7.50;;;;;;;8.89;100.00;95701.41;10442579;28;20144;-72
2021/10/26 07:49:33;;;;;;;17.77;7.35;;;;;;;8.81;100.00;95695.63;10424474;28;20402;-75
2021/10/26 07:54:34;;;;;;;14.57;7.13;;;;;;;8.80;100.00;95686.75;10424371;28;20151;-72
2021/10/26 07:59:34;;;;;;;13.75;6.63;;;;;;;8.89;100.00;95689.88;10440760;28;20419;-72
2021/10/26 08:04:35;;;;;;;11.33;5.93;;;;;;;9.20;100.00;95683.22;10424170;28;20035;-76
2021/10/26 08:09:35;;;;;;;10.40;6.10;;;;;;;9.44;100.00;95684.97;10441119;28;20279;-71
2021/10/26 08:14:36;;;;;;;12.93;6.72;;;;;;;9.60;100.00;95683.34;10439999;28;20033;-72
2021/10/26 08:19:38;;;;;;;17.33;8.50;;;;;;;9.55;100.00;95676.03;10453624;28;20133;-72
2021/10/26 08:24:39;;;;;;;17.15;7.70;;;;;;;9.48;99.52;95668.13;10464232;28;20504;-76
2021/10/26 08:35:04;;;;;;;14.68;7.32;;;;;;;9.27;100.00;95660.81;10464771;28;20036;-71
2021/10/26 08:40:05;;;;;;;12.73;6.88;;;;;;;9.69;100.00;95661.22;10464056;28;20071;-72
2021/10/26 08:45:07;;;;;;;15.07;5.60;;;;;;;10.30;92.58;95665.88;10454375;28;20028;-71
2021/10/26 08:50:09;;;;;;;11.95;6.25;;;;;;;10.31;94.30;95664.00;10445587;28;20619;-71
2021/10/26 08:55:10;;;;;;;11.73;6.38;;;;;;;10.50;87.95;95664.53;10439077;28;20112;-72
2021/10/26 09:00:12;;;;;;;9.98;5.90;;;;;;;10.73;86.36;95655.41;10440800;28;20031;-75
2021/10/26 09:05:17;;;;;;;13.77;7.68;;;;;;;11.20;86.89;95652.13;10422658;28;20346;-73
2021/10/26 09:10:18;;;;;;;18.27;8.75;;;;;;;11.92;82.00;95643.88;10422403;28;20032;-73
2021/10/26 09:20:49;;;;;;;14.35;5.97;;;;;;;12.40;64.63;95641.19;10481569;28;20032;-72
2021/10/26 09:25:55;;;;;;;7.97;5.07;;;;;;;13.24;57.88;95635.81;10439847;28;20036;-77
2021/10/26 09:31:07;;;;;;;9.13;4.40;;;;;;;15.23;50.38;95621.34;10454329;28;20057;-71
2021/10/26 09:36:32;;;;;;;11.90;4.85;;;;;;;18.69;41.46;95600.28;10480538;28;20038;-73
2021/10/26 09:41:53;;;;;;;10.88;5.07;;;;;;;21.88;36.09;95582.91;10463735;28;20032;-73
2021/10/26 09:47:03;;;;;;;6.45;3.25;;;;;;;23.59;31.50;95566.59;10438972;28;20037;-79
2021/10/26 09:52:29;;;;;;;7.15;3.67;;;;;;;23.65;30.68;95562.50;10421570;28;20076;-73
2021/10/26 09:57:34;;;;;;;5.80;3.72;;;;;;;24.26;29.27;95547.38;10439198;28;20112;-73
2021/10/26 10:02:35;;;;;;;6.45;3.70;;;;;;;25.38;28.47;95537.91;10421035;28;20483;-72
2021/10/26 10:07:37;;;;;;;5.03;2.60;;;;;;;23.91;28.43;95534.81;10437388;28;20029;-73
2021/10/26 10:12:39;;;;;;;4.72;2.97;;;;;;;23.72;28.99;95518.84;10445359;28;20024;-77
2021/10/26 10:17:40;;;;;;;4.22;2.80;;;;;;;24.38;28.22;95511.66;10442968;28;20171;-73
2021/10/26 10:22:42;;;;;;;6.25;3.55;;;;;;;25.48;27.29;95506.34;10420345;28;20032;-75
2021/10/26 10:27:44;;;;;;;5.07;3.03;;;;;;;25.24;27.06;95497.81;10437080;28;20041;-79
2021/10/26 10:32:45;;;;;;;3.80;2.72;;;;;;;24.73;26.85;95487.28;10424051;28;20041;-78
2021/10/26 10:37:50;;;;;;;4.85;3.20;;;;;;;24.08;28.36;95483.59;10445527;28;20108;-73
2021/10/26 10:42:52;;;;;;;5.82;2.78;;;;;;;25.33;27.01;95475.69;10427633;28;20053;-72
2021/10/26 10:47:55;;;;;;;4.03;2.80;;;;;;;26.44;27.10;95458.50;10443201;28;20029;-72
2021/10/26 10:53:08;;;;;;;5.53;2.70;;;;;;;26.16;26.15;95457.81;10426894;28;20048;-73
2021/10/26 10:58:27;;;;;;;3.83;2.60;;;;;;;26.01;25.99;95457.47;10426981;28;20070;-76
2021/10/26 11:03:30;;;;;;;3.88;2.63;;;;;;;25.20;27.20;95439.16;10442521;28;20618;-75
2021/10/26 11:08:47;;;;;;;4.82;2.50;;;;;;;25.46;26.82;95426.88;10426284;28;20028;-73
2021/10/26 11:13:47;;;;;;;;;;;;;;;26.50;26.22;95420.44;10465688;28;20089;-72
2021/10/26 11:18:49;;;;;;;4.78;2.45;;;;;;;26.21;25.83;95405.19;10449483;28;19982;-72
2021/10/26 11:23:58;;;;;;;21.98;19.92;;;;;;;25.12;26.60;95409.03;10425907;28;20072;-72
2021/10/26 11:29:01;;;;;;;57.72;53.65;;;;;;;22.89;29.47;95408.91;10466710;28;20057;-76
2021/10/26 11:34:07;;;;;;;6.50;4.18;;;;;;;19.43;33.56;95410.34;10466636;28;20622;-74
2021/10/26 11:39:12;;;;;;;7.32;4.68;;;;;;;17.39;38.52;95405.28;10466537;28;20025;-71
2021/10/26 11:44:15;;;;;;;7.28;4.57;;;;;;;15.72;41.62;95400.94;10465970;28;20028;-74
2021/10/26 11:49:22;;;;;;;7.57;4.88;;;;;;;14.49;45.19;95408.28;10449444;28;20028;-72
2021/10/26 11:54:29;;;;;;;12.40;5.18;;;;;;;14.13;46.74;95392.28;10465576;28;20024;-75
2021/10/26 11:59:31;;;;;;;10.30;5.10;;;;;;;13.80;50.43;95392.72;10441449;28;20112;-72
2021/10/26 12:04:31;;;;;;;6.47;4.07;;;;;;;13.15;51.26;95392.63;10442030;28;20029;-70
2021/10/26 12:09:34;;;;;;;7.17;4.73;;;;;;;12.85;52.13;95385.38;10452963;28;20032;-72
2021/10/26 12:14:38;;;;;;;6.28;3.67;;;;;;;12.48;51.96;95387.28;10427382;28;20530;-71
2021/10/26 12:19:42;;;;;;;10.45;3.97;;;;;;;12.33;51.62;95379.19;10440132;28;20405;-72
2021/10/26 12:24:51;;;;;;;5.68;3.63;;;;;;;12.00;50.19;95368.63;10439985;28;20025;-78
2021/10/26 12:29:53;;;;;;;5.32;3.50;;;;;;;11.59;50.60;95376.53;10443563;28;20048;-73
2021/10/26 12:34:53;;;;;;;4.57;3.28;;;;;;;11.82;50.10;95367.19;10460571;28;20570;-75
2021/10/26 12:39:55;;;;;;;4.97;2.50;;;;;;;11.84;48.84;95364.25;10476169;28;20028;-72
2021/10/26 12:44:55;;;;;;;5.00;2.63;;;;;;;11.68;48.90;95355.28;10460549;28;20278;-75
2021/10/26 12:49:56;;;;;;;5.53;2.80;;;;;;;11.72;50.12;95351.00;10480584;28;20040;-76
2021/10/26 12:54:58;;;;;;;5.20;3.60;;;;;;;11.75;50.39;95351.28;10462585;28;20339;-75
2021/10/26 13:00:19;;;;;;;7.65;3.63;;;;;;;11.59;52.10;95347.72;10479373;28;20024;-72
2021/10/26 13:05:20;;;;;;;6.18;3.92;;;;;;;11.59;53.89;95355.00;10440437;28;20090;-77
2021/10/26 13:10:26;;;;;;;9.02;3.90;;;;;;;11.58;55.42;95354.22;10473836;28;20634;-73
2021/10/26 13:15:33;;;;;;;4.00;3.05;;;;;;;11.61;57.07;95360.94;10458130;28;20020;-71
2021/10/26 13:20:41;;;;;;;4.15;2.85;;;;;;;11.56;53.70;95352.84;10434066;28;20090;-77
2021/10/26 13:25:47;;;;;;;3.88;2.63;;;;;;;11.44;54.07;95364.66;10426325;28;20033;-76
2021/10/26 13:30:52;;;;;;;6.05;2.97;;;;;;;11.39;53.16;95343.09;10457181;28;20053;-72
2021/10/26 13:35:53;;;;;;;6.75;3.83;;;;;;;11.33;53.84;95357.59;10443974;28;20048;-72
2021/10/26 13:40:55;;;;;;;6.38;3.60;;;;;;;11.14;53.84;95359.13;10420802;28;20027;-73
2021/10/26 13:46:00;;;;;;;4.70;2.83;;;;;;;10.94;54.50;95356.03;10422199;28;20235;-73
2021/10/26 13:51:02;;;;;;;8.95;4.25;;;;;;;10.99;57.83;95349.09;10451179;28;20115;-76
2021/10/26 13:56:03;;;;;;;5.57;3.95;;;;;;;11.01;57.72;95365.75;10461516;28;20021;-73
2021/10/26 14:01:22;;;;;;;8.45;6.72;;;;;;;10.89;58.63;95365.97;10462279;28;20479;-74
2021/10/26 14:06:22;;;;;;;9.63;8.52;;;;;;;10.89;61.27;95366.75;10451462;28;20490;-73
2021/10/26 14:11:24;;;;;;;4.80;3.42;;;;;;;10.84;60.50;95369.44;10446733;28;20032;-77
2021/10/26 14:16:26;;;;;;;5.90;3.25;;;;;;;10.53;62.04;95377.25;10469112;28;20139;-71
2021/10/26 14:21:28;;;;;;;5.20;3.20;;;;;;;10.40;63.41;95378.50;10443037;28;20061;-72
2021/10/26 14:26:29;;;;;;;11.85;4.20;;;;;;;10.31;65.00;95380.03;10440103;28;20562;-71
2021/10/26 14:31:30;;;;;;;5.10;3.70;;;;;;;10.29;65.70;95382.13;10469443;28;20056;-76
2021/10/26 14:52:54;;;;;;;8.23;4.43;;;;;;;9.64;68.23;95382.03;10485621;28;20554;-72
2021/10/26 14:57:55;;;;;;;5.55;4.05;;;;;;;9.43;70.00;95377.47;10467930;28;20457;-75
2021/10/26 15:02:55;;;;;;;6.65;3.85;;;;;;;9.32;70.55;95371.16;10449557;28;20040;-74
2021/10/26 15:07:56;;;;;;;8.00;4.17;;;;;;;9.15;73.35;95381.94;10464979;28;20120;-71
2021/10/26 15:12:59;;;;;;;6.43;4.60;;;;;;;9.10;75.24;95381.88;10466530;28;20802;-71
2021/10/26 15:18:00;;;;;;;5.32;4.07;;;;;;;9.01;76.38;95384.19;10442944;28;20036;-71
2021/10/26 15:23:04;;;;;;;5.43;3.57;;;;;;;8.87;79.81;95378.34;10473287;28;20033;-72
2021/10/26 15:33:28;;;;;;;11.05;4.25;;;;;;;8.69;82.74;95380.25;10474011;28;20032;-73
2021/10/26 15:38:30;;;;;;;16.70;5.45;;;;;;;8.63;86.76;95383.91;10463300;28;20099;-71
2021/10/26 15:43:33;;;;;;;14.55;5.53;;;;;;;8.58;86.63;95377.66;10463494;28;20036;-70
2021/10/26 15:48:33;;;;;;;4.93;3.92;;;;;;;8.50;86.91;95386.91;10459142;28;20494;-70
2021/10/26 15:53:34;;;;;;;10.23;5.18;;;;;;;8.46;88.77;95391.13;10463429;28;20024;-75
2021/10/26 15:58:36;;;;;;;14.95;7.90;;;;;;;8.27;87.56;95394.00;10482336;28;20421;-70
2021/10/26 16:03:36;;;;;;;6.57;4.28;;;;;;;8.15;89.37;95410.13;10430027;28;20036;-70
2021/10/26 16:08:37;;;;;;;7.90;5.03;;;;;;;8.06;90.32;95408.91;10423633;28;20033;-69
2021/10/26 16:13:40;;;;;;;5.60;3.47;;;;;;;7.94;91.34;95408.13;10446245;28;21203;-73
2021/10/26 16:18:41;;;;;;;20.48;5.07;;;;;;;7.77;91.89;95410.75;10452002;28;20034;-70
2021/10/26 16:23:42;;;;;;;8.13;4.78;;;;;;;7.67;93.64;95414.06;10441445;28;20472;-71
2021/10/26 16:28:43;;;;;;;80.28;75.43;;;;;;;7.57;95.40;95420.03;10436593;28;20045;-69
2021/10/26 16:33:51;;;;;;;13.15;4.93;;;;;;;7.47;96.44;95425.19;10453222;28;20024;-74
2021/10/26 16:38:51;;;;;;;5.93;4.53;;;;;;;7.44;95.16;95431.00;10462629;28;20084;-70
2021/10/26 16:49:04;;;;;;;8.15;4.60;;;;;;;7.27;98.84;95444.25;10474249;28;20055;-72
2021/10/26 16:54:05;;;;;;;7.13;4.22;;;;;;;7.26;100.00;95451.47;10463180;28;20476;-70
2021/10/26 16:59:05;;;;;;;6.15;4.07;;;;;;;7.22;100.00;95453.00;10462716;28;20031;-74
2021/10/26 17:04:06;;;;;;;5.60;3.17;;;;;;;7.15;100.00;95453.09;10443775;28;20059;-75
2021/10/26 17:09:10;;;;;;;11.55;5.40;;;;;;;7.08;100.00;95454.28;10461360;28;20295;-74
2021/10/26 17:14:10;;;;;;;7.70;4.78;;;;;;;7.06;100.00;95456.38;10421744;28;20465;-72
2021/10/26 17:19:11;;;;;;;9.15;4.82;;;;;;;7.11;100.00;95456.50;10425834;28;20417;-77
2021/10/26 17:24:11;;;;;;;7.22;4.18;;;;;;;7.09;100.00;95454.06;10461989;28;20029;-76
2021/10/26 17:29:12;;;;;;;12.00;4.72;;;;;;;7.11;100.00;95465.31;10462239;28;20044;-69
2021/10/26 17:34:12;;;;;;;8.43;5.03;;;;;;;7.09;100.00;95466.59;10460987;28;20132;-72
2021/10/26 17:39:12;;;;;;;8.52;4.47;;;;;;;6.94;100.00;95467.88;10462759;28;20279;-71
2021/10/26 17:44:14;;;;;;;7.25;3.97;;;;;;;6.96;100.00;95464.97;10476646;28;20040;-71
2021/10/26 17:49:14;;;;;;;12.93;5.57;;;;;;;6.92;100.00;95463.81;10457968;28;20147;-75
2021/10/26 17:54:15;;;;;;;7.25;4.53;;;;;;;6.77;100.00;95474.97;10472315;28;20046;-70
2021/10/26 17:59:15;;;;;;;7.43;4.22;;;;;;;6.62;100.00;95467.38;10453163;28;20332;-70
2021/10/26 18:04:16;;;;;;;7.50;3.88;;;;;;;6.57;100.00;95473.41;10446269;28;20525;-70
2021/10/26 18:09:17;;;;;;;7.28;5.18;;;;;;;6.47;100.00;95473.16;10445549;28;20032;-71
2021/10/26 18:14:19;;;;;;;8.07;5.20;;;;;;;6.36;100.00;95473.94;10427572;28;20081;-75
2021/10/26 18:19:19;;;;;;;7.78;4.07;;;;;;;6.27;100.00;95479.59;10427616;28;20025;-70
2021/10/26 18:24:20;;;;;;;7.18;4.30;;;;;;;6.16;100.00;95477.72;10451525;28;20024;-73
2021/10/26 18:29:21;;;;;;;8.18;4.57;;;;;;;6.25;100.00;95491.53;10468401;28;20041;-77
2021/10/26 18:34:21;;;;;;;13.60;7.30;;;;;;;6.07;100.00;95481.72;10455783;28;20502;-75
2021/10/26 18:39:26;;;;;;;8.90;6.10;;;;;;;5.96;100.00;95483.28;10433634;28;20032;-72
2021/10/26 18:44:42;;;;;;;16.83;7.55;;;;;;;5.89;100.00;95493.22;10454956;28;20043;-76
2021/10/26 18:49:42;;;;;;;15.77;7.65;;;;;;;5.87;100.00;95501.44;10457136;28;20620;-72
2021/10/26 18:54:43;;;;;;;13.35;7.07;;;;;;;5.84;100.00;95498.41;10456913;28;20021;-72
2021/10/26 18:59:43;;;;;;;17.43;8.17;;;;;;;5.71;100.00;95502.88;10463531;28;20027;-77
2021/10/26 19:04:44;;;;;;;17.50;9.43;;;;;;;5.70;100.00;95511.09;10484452;28;20653;-77
2021/10/26 19:09:44;;;;;;;26.25;10.25;;;;;;;5.73;100.00;95511.44;10465645;28;20378;-78
2021/10/26 19:14:46;;;;;;;27.50;9.85;;;;;;;5.51;100.00;95507.59;10456474;28;20486;-72
2021/10/26 19:19:49;;;;;;;24.55;10.13;;;;;;;5.38;100.00;95506.72;10437495;28;20082;-77
2021/10/26 19:24:50;;;;;;;18.02;9.65;;;;;;;5.33;100.00;95511.91;10484086;28;20086;-73
2021/10/26 19:29:56;;;;;;;20.88;10.00;;;;;;;5.20;100.00;95522.69;10465838;28;20145;-77
2021/10/26 19:34:56;;;;;;;19.25;9.80;;;;;;;5.10;100.00;95523.19;10462952;28;20126;-74
2021/10/26 19:39:57;;;;;;;21.07;9.63;;;;;;;5.12;100.00;95527.28;10464775;28;20181;-73
2021/10/26 19:44:58;;;;;;;24.65;11.20;;;;;;;5.00;100.00;95531.69;10441193;28;20259;-72
2021/10/26 19:49:58;;;;;;;18.60;10.93;;;;;;;4.77;100.00;95543.75;10440120;28;20483;-72
2021/10/26 19:54:59;;;;;;;16.45;9.95;;;;;;;4.78;100.00;95552.53;10442627;28;20271;-73
2021/10/26 19:59:59;;;;;;;21.13;11.25;;;;;;;4.64;100.00;95554.47;10447411;28;20407;-76
2021/10/26 20:05:01;;;;;;;18.67;11.23;;;;;;;4.72;100.00;95556.09;10439698;28;20111;-76
2021/10/26 20:10:01;;;;;;;21.95;11.68;;;;;;;4.69;100.00;95556.50;10457607;28;20025;-79
2021/10/26 20:15:02;;;;;;;24.05;11.43;;;;;;;4.70;100.00;95556.31;10476550;28;20449;-72
2021/10/26 20:20:17;;;;;;;25.70;13.38;;;;;;;4.68;100.00;95558.34;10423243;28;20080;-74
2021/10/26 20:25:21;;;;;;;18.65;9.57;;;;;;;4.68;100.00;95552.22;10423323;28;20025;-71
2021/10/26 20:30:24;;;;;;;18.17;10.00;;;;;;;4.69;100.00;95552.00;10431619;28;20065;-70
2021/10/26 20:35:24;;;;;;;18.98;10.10;;;;;;;4.69;100.00;95548.50;10464708;28;20024;-68
2021/10/26 20:40:25;;;;;;;14.15;8.65;;;;;;;4.67;100.00;95554.03;10423696;28;20449;-71
2021/10/26 20:45:26;;;;;;;16.35;9.88;;;;;;;4.70;100.00;95545.66;10477278;28;20028;-71
2021/10/26 20:50:30;;;;;;;14.02;8.82;;;;;;;4.68;100.00;95545.03;10482434;28;20024;-68
2021/10/26 20:55:31;;;;;;;19.02;8.45;;;;;;;4.78;100.00;95539.22;10463920;28;20601;-70
2021/10/26 21:00:31;;;;;;;13.77;8.52;;;;;;;4.84;100.00;95537.53;10440361;28;20104;-75
2021/10/26 21:05:32;;;;;;;16.60;8.27;;;;;;;4.84;100.00;95541.00;10438944;28;20175;-76
2021/10/26 21:10:32;;;;;;;11.85;7.63;;;;;;;4.81;100.00;95532.66;10440681;28;20041;-77
2021/10/26 21:15:32;;;;;;;14.60;7.87;;;;;;;4.67;100.00;95524.75;10438728;28;20021;-71
2021/10/26 21:20:33;;;;;;;14.77;8.20;;;;;;;4.54;100.00;95535.50;10439420;28;20269;-76
2021/10/26 21:25:33;;;;;;;12.95;8.48;;;;;;;4.34;100.00;95520.50;10463420;28;20694;-70
2021/10/26 21:30:34;;;;;;;20.02;9.23;;;;;;;4.24;100.00;95520.13;10463768;28;20045;-71
2021/10/26 21:35:43;;;;;;;14.57;9.00;;;;;;;4.10;100.00;95522.88;10428150;28;20036;-70
2021/10/26 21:40:47;;;;;;;14.07;8.90;;;;;;;3.94;100.00;95529.47;10459251;28;20020;-78
2021/10/26 21:45:48;;;;;;;20.77;10.63;;;;;;;3.94;100.00;95526.81;10462801;28;20029;-68
2021/10/26 21:50:48;;;;;;;18.52;12.23;;;;;;;3.88;100.00;95526.84;10478596;28;20047;-70
2021/10/26 21:55:48;;;;;;;21.45;11.32;;;;;;;3.99;100.00;95530.69;10438334;28;20021;-71
2021/10/26 22:00:49;;;;;;;24.65;12.15;;;;;;;3.98;100.00;95529.06;10438345;28;20064;-70
2021/10/26 22:05:50;;;;;;;19.05;10.60;;;;;;;3.99;100.00;95528.88;10420623;28;20067;-70
2021/10/26 22:10:50;;;;;;;22.77;12.70;;;;;;;4.02;100.00;95530.25;10437786;28;20055;-67
2021/10/26 22:15:52;;;;;;;21.03;11.63;;;;;;;4.03;100.00;95523.94;10421124;28;20020;-70
2021/10/26 22:20:54;;;;;;;22.70;11.00;;;;;;;3.94;100.00;95523.34;10454864;28;20274;-73
2021/10/26 22:25:54;;;;;;;16.80;9.77;;;;;;;3.94;100.00;95523.34;10481861;28;20028;-71
2021/10/26 22:30:56;;;;;;;19.23;10.02;;;;;;;3.93;100.00;95525.22;10440706;28;20514;-71
2021/10/26 22:35:56;;;;;;;19.48;10.80;;;;;;;3.97;100.00;95520.28;10468118;28;20024;-69
2021/10/26 22:40:57;;;;;;;24.10;11.40;;;;;;;4.02;100.00;95520.47;10469300;28;20030;-71
2021/10/26 22:45:57;;;;;;;20.48;11.18;;;;;;;4.04;100.00;95522.91;10468284;28;20028;-75
2021/10/26 22:50:58;;;;;;;24.35;11.85;;;;;;;4.06;100.00;95524.31;10452275;28;20044;-70
2021/10/26 22:55:58;;;;;;;19.77;12.05;;;;;;;4.00;100.00;95525.16;10469242;28;20524;-69
2021/10/26 23:00:58;;;;;;;18.57;10.10;;;;;;;3.90;100.00;95522.94;10466401;28;20051;-69
2021/10/26 23:05:59;;;;;;;19.77;9.95;;;;;;;3.84;100.00;95525.66;10426524;28;20287;-73
2021/10/26 23:10:59;;;;;;;14.30;8.47;;;;;;;3.79;100.00;95528.13;10430893;28;20020;-66
2021/10/26 23:16:00;;;;;;;14.77;8.57;;;;;;;3.79;100.00;95528.13;10427036;28;20272;-70
2021/10/26 23:21:00;;;;;;;14.97;7.53;;;;;;;3.69;100.00;95528.56;10444425;28;20893;-69
2021/10/26 23:26:00;;;;;;;21.30;9.48;;;;;;;3.65;100.00;95538.00;10424889;28;20295;-70
2021/10/26 23:31:01;;;;;;;14.57;8.55;;;;;;;3.73;100.00;95535.91;10443754;28;20053;-74
2021/10/26 23:36:01;;;;;;;14.07;8.43;;;;;;;3.61;100.00;95532.28;10442517;28;20109;-70
2021/10/26 23:41:02;;;;;;;18.25;8.70;;;;;;;3.57;100.00;95523.09;10444285;28;20024;-72
2021/10/26 23:46:02;;;;;;;12.43;8.20;;;;;;;3.69;100.00;95536.56;10467507;28;20494;-74
2021/10/26 23:51:03;;;;;;;17.20;8.18;;;;;;;3.71;100.00;95542.47;10485061;28;20020;-69
2021/10/26 23:56:04;;;;;;;16.17;9.27;;;;;;;3.68;100.00;95538.38;10466785;28;20032;-70
